Balko, Oklahoma
Current Conditions -  °F | °C
As of 10:35 PM on Friday 19 Dec 2014 (Local Time) from KPYX Reporting Station
Overcast Overcast  
Wind Chill: 33°   Ceiling: 1300
Heat Index: 39°   Visibility: 7mi
Dew Point: 36°   Wind: 9mph
Humidity: 88%   Direction: 200°SSW
Pressure: 30.14"   Gusts: NA
Location:  36.63°N, 100.69°W
Report Text: KPYX 200435Z AUTO 20008KT 7SM OVC013 04/02 A3014 RMK AO2 T00410023
Loading
Personal Weather Stations






























Interactive Weather Map New forecast layout! Learn more

10-Day Weather Forecast

Advertisements
Track Severe Weather on mobile